sensor_id;sensor_type;location;lat;lon;timestamp;pressure;altitude;pressure_sealevel;temperature;humidity
54122;BME280;40029;58.708;50.190;2022-07-23T00:02:26;99490.16;;;19.09;61.17
54122;BME280;40029;58.708;50.190;2022-07-23T00:04:57;99436.25;;;18.78;60.87
54122;BME280;40029;58.708;50.190;2022-07-23T00:07:28;99498.78;;;19.11;60.62
54122;BME280;40029;58.708;50.190;2022-07-23T00:09:59;99499.03;;;19.08;60.96
54122;BME280;40029;58.708;50.190;2022-07-23T00:12:30;99498.53;;;19.03;60.69
54122;BME280;40029;58.708;50.190;2022-07-23T00:15:01;99501.44;;;19.00;60.62
54122;BME280;40029;58.708;50.190;2022-07-23T00:17:33;99499.50;;;19.02;60.70
54122;BME280;40029;58.708;50.190;2022-07-23T00:20:05;99501.53;;;18.98;61.21
54122;BME280;40029;58.708;50.190;2022-07-23T00:22:36;99506.81;;;18.98;61.37
54122;BME280;40029;58.708;50.190;2022-07-23T00:25:07;99507.56;;;19.00;61.28
54122;BME280;40029;58.708;50.190;2022-07-23T00:27:38;99505.75;;;19.01;61.23
54122;BME280;40029;58.708;50.190;2022-07-23T00:30:10;99504.06;;;19.00;61.21
54122;BME280;40029;58.708;50.190;2022-07-23T00:32:46;99464.19;;;18.80;61.57
54122;BME280;40029;58.708;50.190;2022-07-23T00:35:20;99506.47;;;19.03;61.14
54122;BME280;40029;58.708;50.190;2022-07-23T00:37:51;99487.81;;;18.82;61.12
54122;BME280;40029;58.708;50.190;2022-07-23T00:40:23;99511.38;;;18.96;61.41
54122;BME280;40029;58.708;50.190;2022-07-23T00:42:54;99515.94;;;18.94;61.24
54122;BME280;40029;58.708;50.190;2022-07-23T00:45:25;99514.25;;;18.93;61.02
54122;BME280;40029;58.708;50.190;2022-07-23T00:47:57;99517.03;;;18.91;60.40
54122;BME280;40029;58.708;50.190;2022-07-23T00:50:28;99514.84;;;18.85;60.33
54122;BME280;40029;58.708;50.190;2022-07-23T00:52:59;99485.59;;;18.64;60.40
54122;BME280;40029;58.708;50.190;2022-07-23T00:55:31;99527.09;;;18.86;60.79
54122;BME280;40029;58.708;50.190;2022-07-23T00:58:02;99520.84;;;18.87;60.31
54122;BME280;40029;58.708;50.190;2022-07-23T01:00:33;99526.63;;;18.92;60.22
54122;BME280;40029;58.708;50.190;2022-07-23T01:03:04;99521.09;;;18.95;60.16
54122;BME280;40029;58.708;50.190;2022-07-23T01:05:35;99519.78;;;19.01;60.25
54122;BME280;40029;58.708;50.190;2022-07-23T01:08:07;99515.34;;;19.02;60.38
54122;BME280;40029;58.708;50.190;2022-07-23T01:10:38;99522.91;;;19.06;60.25
54122;BME280;40029;58.708;50.190;2022-07-23T01:13:09;99530.84;;;19.06;60.69
54122;BME280;40029;58.708;50.190;2022-07-23T01:15:41;99528.44;;;19.14;60.39
54122;BME280;40029;58.708;50.190;2022-07-23T01:18:12;99528.22;;;19.17;60.46
54122;BME280;40029;58.708;50.190;2022-07-23T01:20:43;99525.34;;;19.20;60.59
54122;BME280;40029;58.708;50.190;2022-07-23T01:23:15;99530.97;;;19.27;60.49
54122;BME280;40029;58.708;50.190;2022-07-23T01:25:53;99527.88;;;19.33;60.52
54122;BME280;40029;58.708;50.190;2022-07-23T01:28:26;99531.97;;;19.37;60.53
54122;BME280;40029;58.708;50.190;2022-07-23T01:30:58;99531.59;;;19.42;60.63
54122;BME280;40029;58.708;50.190;2022-07-23T01:33:29;99529.19;;;19.39;60.98
54122;BME280;40029;58.708;50.190;2022-07-23T01:36:01;99537.59;;;19.44;61.22
54122;BME280;40029;58.708;50.190;2022-07-23T01:38:32;99528.47;;;19.48;60.74
54122;BME280;40029;58.708;50.190;2022-07-23T01:41:03;99531.94;;;19.48;60.99
54122;BME280;40029;58.708;50.190;2022-07-23T01:43:36;99535.31;;;19.51;60.52
54122;BME280;40029;58.708;50.190;2022-07-23T01:46:07;99491.00;;;19.32;60.64
54122;BME280;40029;58.708;50.190;2022-07-23T01:48:44;99533.75;;;19.59;60.17
54122;BME280;40029;58.708;50.190;2022-07-23T01:51:38;99528.13;;;19.64;60.34
54122;BME280;40029;58.708;50.190;2022-07-23T01:54:33;99530.16;;;19.71;60.25
54122;BME280;40029;58.708;50.190;2022-07-23T01:57:06;99532.44;;;19.76;59.79
54122;BME280;40029;58.708;50.190;2022-07-23T01:59:38;99526.41;;;19.85;59.69
54122;BME280;40029;58.708;50.190;2022-07-23T02:02:10;99522.06;;;19.95;59.29
54122;BME280;40029;58.708;50.190;2022-07-23T02:04:42;99523.84;;;20.06;59.17
54122;BME280;40029;58.708;50.190;2022-07-23T02:07:13;99519.47;;;20.16;58.63
54122;BME280;40029;58.708;50.190;2022-07-23T02:09:44;99524.22;;;20.34;58.47
54122;BME280;40029;58.708;50.190;2022-07-23T02:12:16;99520.81;;;20.43;58.32
54122;BME280;40029;58.708;50.190;2022-07-23T02:14:49;99520.66;;;20.56;58.34
54122;BME280;40029;58.708;50.190;2022-07-23T02:17:20;99526.03;;;20.65;57.99
54122;BME280;40029;58.708;50.190;2022-07-23T02:19:51;99525.97;;;20.77;57.73
54122;BME280;40029;58.708;50.190;2022-07-23T02:22:22;99518.22;;;20.85;56.97
54122;BME280;40029;58.708;50.190;2022-07-23T02:24:53;99526.53;;;21.01;56.18
54122;BME280;40029;58.708;50.190;2022-07-23T02:27:24;99522.28;;;21.10;55.27
54122;BME280;40029;58.708;50.190;2022-07-23T02:29:56;99517.41;;;21.15;54.41
54122;BME280;40029;58.708;50.190;2022-07-23T02:32:28;99521.66;;;21.27;54.01
54122;BME280;40029;58.708;50.190;2022-07-23T02:34:59;99529.69;;;21.37;52.88
54122;BME280;40029;58.708;50.190;2022-07-23T02:37:30;99524.28;;;21.48;52.09
54122;BME280;40029;58.708;50.190;2022-07-23T02:40:01;99525.19;;;21.58;51.93
54122;BME280;40029;58.708;50.190;2022-07-23T02:42:34;99526.88;;;21.69;51.30
54122;BME280;40029;58.708;50.190;2022-07-23T02:45:06;99516.16;;;21.80;50.51
54122;BME280;40029;58.708;50.190;2022-07-23T02:47:38;99524.84;;;21.92;50.20
54122;BME280;40029;58.708;50.190;2022-07-23T02:50:09;99470.34;;;21.68;49.32
54122;BME280;40029;58.708;50.190;2022-07-23T02:52:40;99518.72;;;22.11;49.05
54122;BME280;40029;58.708;50.190;2022-07-23T02:55:11;99523.09;;;22.21;48.79
54122;BME280;40029;58.708;50.190;2022-07-23T02:57:42;99516.13;;;22.30;48.46
54122;BME280;40029;58.708;50.190;2022-07-23T03:00:13;99525.75;;;22.41;48.06
54122;BME280;40029;58.708;50.190;2022-07-23T03:02:44;99521.28;;;22.51;46.96
54122;BME280;40029;58.708;50.190;2022-07-23T03:05:15;99487.91;;;22.39;46.88
54122;BME280;40029;58.708;50.190;2022-07-23T03:07:46;99524.34;;;22.66;46.44
54122;BME280;40029;58.708;50.190;2022-07-23T03:10:17;99529.78;;;22.74;46.91
54122;BME280;40029;58.708;50.190;2022-07-23T03:12:49;99492.63;;;22.64;48.03
54122;BME280;40029;58.708;50.190;2022-07-23T03:15:22;99528.81;;;22.75;49.62
54122;BME280;40029;58.708;50.190;2022-07-23T03:17:53;99521.13;;;22.82;50.14
54122;BME280;40029;58.708;50.190;2022-07-23T03:20:24;99519.56;;;22.89;50.41
54122;BME280;40029;58.708;50.190;2022-07-23T03:22:55;99516.38;;;22.95;50.58
54122;BME280;40029;58.708;50.190;2022-07-23T03:25:26;99492.75;;;22.82;50.45
54122;BME280;40029;58.708;50.190;2022-07-23T03:27:57;99525.97;;;23.06;50.63
54122;BME280;40029;58.708;50.190;2022-07-23T03:30:30;99523.88;;;23.09;50.26
54122;BME280;40029;58.708;50.190;2022-07-23T03:33:01;99520.09;;;23.12;50.39
54122;BME280;40029;58.708;50.190;2022-07-23T03:35:32;99524.28;;;23.14;50.68
54122;BME280;40029;58.708;50.190;2022-07-23T03:38:21;99504.28;;;23.10;50.42
54122;BME280;40029;58.708;50.190;2022-07-23T03:40:52;99529.25;;;23.37;50.54
54122;BME280;40029;58.708;50.190;2022-07-23T03:43:23;99528.50;;;23.44;50.20
54122;BME280;40029;58.708;50.190;2022-07-23T03:45:56;99515.47;;;23.51;49.14
54122;BME280;40029;58.708;50.190;2022-07-23T03:48:27;99523.56;;;23.59;48.81
54122;BME280;40029;58.708;50.190;2022-07-23T03:50:58;99528.00;;;23.68;48.19
54122;BME280;40029;58.708;50.190;2022-07-23T03:53:29;99521.97;;;23.76;47.83
54122;BME280;40029;58.708;50.190;2022-07-23T03:56:00;99522.72;;;23.86;47.62
54122;BME280;40029;58.708;50.190;2022-07-23T03:58:32;99522.97;;;23.93;47.59
54122;BME280;40029;58.708;50.190;2022-07-23T04:01:03;99529.38;;;24.00;47.34
54122;BME280;40029;58.708;50.190;2022-07-23T04:03:34;99528.47;;;24.09;46.59
54122;BME280;40029;58.708;50.190;2022-07-23T04:06:06;99520.72;;;24.16;46.29
54122;BME280;40029;58.708;50.190;2022-07-23T04:08:37;99527.31;;;24.30;45.86
54122;BME280;40029;58.708;50.190;2022-07-23T04:11:08;99517.91;;;24.35;45.37
54122;BME280;40029;58.708;50.190;2022-07-23T04:13:40;99511.16;;;24.41;45.02
54122;BME280;40029;58.708;50.190;2022-07-23T04:16:11;99533.75;;;24.55;44.74
54122;BME280;40029;58.708;50.190;2022-07-23T04:18:42;99533.25;;;24.51;44.89
54122;BME280;40029;58.708;50.190;2022-07-23T04:21:19;99530.31;;;24.62;44.46
54122;BME280;40029;58.708;50.190;2022-07-23T04:23:51;99534.72;;;24.72;44.38
54122;BME280;40029;58.708;50.190;2022-07-23T04:26:22;99504.50;;;24.63;43.66
54122;BME280;40029;58.708;50.190;2022-07-23T04:28:53;99533.19;;;24.87;43.84
54122;BME280;40029;58.708;50.190;2022-07-23T04:31:24;99532.81;;;24.82;43.93
54122;BME280;40029;58.708;50.190;2022-07-23T04:33:55;99539.88;;;24.91;43.14
54122;BME280;40029;58.708;50.190;2022-07-23T04:36:26;99542.72;;;24.98;42.59
54122;BME280;40029;58.708;50.190;2022-07-23T04:38:58;99535.13;;;25.03;41.79
54122;BME280;40029;58.708;50.190;2022-07-23T04:41:30;99532.81;;;25.08;41.48
54122;BME280;40029;58.708;50.190;2022-07-23T04:44:01;99532.06;;;25.15;40.81
54122;BME280;40029;58.708;50.190;2022-07-23T04:46:33;99528.16;;;25.28;41.02
54122;BME280;40029;58.708;50.190;2022-07-23T04:49:04;99528.84;;;25.38;40.63
54122;BME280;40029;58.708;50.190;2022-07-23T04:51:35;99530.88;;;25.44;40.25
54122;BME280;40029;58.708;50.190;2022-07-23T04:54:06;99532.56;;;25.45;40.24
54122;BME280;40029;58.708;50.190;2022-07-23T04:56:37;99537.94;;;25.53;40.22
54122;BME280;40029;58.708;50.190;2022-07-23T04:59:09;99531.28;;;25.65;39.85
54122;BME280;40029;58.708;50.190;2022-07-23T05:01:41;99530.50;;;25.73;39.67
54122;BME280;40029;58.708;50.190;2022-07-23T05:04:12;99543.38;;;25.78;39.38
54122;BME280;40029;58.708;50.190;2022-07-23T05:06:45;99534.41;;;25.87;39.45
54122;BME280;40029;58.708;50.190;2022-07-23T05:09:16;99530.28;;;25.92;39.40
54122;BME280;40029;58.708;50.190;2022-07-23T05:11:48;99534.59;;;25.93;39.45
54122;BME280;40029;58.708;50.190;2022-07-23T05:14:20;99497.66;;;25.73;39.73
54122;BME280;40029;58.708;50.190;2022-07-23T05:16:51;99535.13;;;26.05;39.70
54122;BME280;40029;58.708;50.190;2022-07-23T05:19:27;99534.81;;;26.16;39.25
54122;BME280;40029;58.708;50.190;2022-07-23T05:21:58;99539.69;;;26.21;39.14
54122;BME280;40029;58.708;50.190;2022-07-23T05:24:29;99538.19;;;26.35;39.17
54122;BME280;40029;58.708;50.190;2022-07-23T05:27:00;99542.25;;;26.47;38.36
54122;BME280;40029;58.708;50.190;2022-07-23T05:29:31;99542.75;;;26.51;38.55
54122;BME280;40029;58.708;50.190;2022-07-23T05:32:02;99546.75;;;26.63;37.85
54122;BME280;40029;58.708;50.190;2022-07-23T05:34:35;99542.59;;;26.69;37.57
54122;BME280;40029;58.708;50.190;2022-07-23T05:37:06;99533.75;;;26.76;37.21
54122;BME280;40029;58.708;50.190;2022-07-23T05:39:37;99536.72;;;26.89;36.55
54122;BME280;40029;58.708;50.190;2022-07-23T05:42:08;99541.72;;;27.01;35.76
54122;BME280;40029;58.708;50.190;2022-07-23T05:44:39;99533.03;;;27.15;35.94
54122;BME280;40029;58.708;50.190;2022-07-23T05:47:10;99531.84;;;27.17;35.78
54122;BME280;40029;58.708;50.190;2022-07-23T05:49:42;99528.22;;;27.10;34.15
54122;BME280;40029;58.708;50.190;2022-07-23T05:52:32;99517.31;;;27.20;31.32
54122;BME280;40029;58.708;50.190;2022-07-23T05:55:21;99525.28;;;27.36;30.60
54122;BME280;40029;58.708;50.190;2022-07-23T05:57:52;99524.25;;;27.46;29.64
54122;BME280;40029;58.708;50.190;2022-07-23T06:00:24;99532.41;;;27.52;30.01
54122;BME280;40029;58.708;50.190;2022-07-23T06:02:56;99527.03;;;27.60;29.73
54122;BME280;40029;58.708;50.190;2022-07-23T06:05:29;99527.03;;;27.60;29.20
54122;BME280;40029;58.708;50.190;2022-07-23T06:08:01;99517.31;;;27.67;28.34
54122;BME280;40029;58.708;50.190;2022-07-23T06:10:33;99486.06;;;27.60;27.04
54122;BME280;40029;58.708;50.190;2022-07-23T06:13:04;99518.22;;;27.91;27.83
54122;BME280;40029;58.708;50.190;2022-07-23T06:15:36;99514.19;;;27.95;28.08
54122;BME280;40029;58.708;50.190;2022-07-23T06:18:07;99508.59;;;28.05;27.71
54122;BME280;40029;58.708;50.190;2022-07-23T06:20:38;99514.66;;;27.99;27.02
54122;BME280;40029;58.708;50.190;2022-07-23T06:23:09;99513.53;;;27.93;27.26
54122;BME280;40029;58.708;50.190;2022-07-23T06:25:40;99515.66;;;27.98;26.87
54122;BME280;40029;58.708;50.190;2022-07-23T06:28:11;99508.41;;;28.06;27.32
54122;BME280;40029;58.708;50.190;2022-07-23T06:30:42;99514.44;;;28.08;27.10
54122;BME280;40029;58.708;50.190;2022-07-23T06:33:13;99515.91;;;28.11;26.69
54122;BME280;40029;58.708;50.190;2022-07-23T06:35:44;99509.34;;;28.22;27.10
54122;BME280;40029;58.708;50.190;2022-07-23T06:38:15;99512.13;;;28.28;27.27
54122;BME280;40029;58.708;50.190;2022-07-23T06:40:46;99508.06;;;28.32;25.87
54122;BME280;40029;58.708;50.190;2022-07-23T06:43:17;99505.91;;;28.36;25.96
54122;BME280;40029;58.708;50.190;2022-07-23T06:45:49;99476.41;;;28.36;26.27
54122;BME280;40029;58.708;50.190;2022-07-23T06:48:20;99479.78;;;28.38;27.45
54122;BME280;40029;58.708;50.190;2022-07-23T06:50:52;99503.03;;;28.60;26.53
54122;BME280;40029;58.708;50.190;2022-07-23T06:53:28;99505.63;;;28.69;25.25
54122;BME280;40029;58.708;50.190;2022-07-23T06:55:59;99506.72;;;28.59;25.01
54122;BME280;40029;58.708;50.190;2022-07-23T06:58:30;99500.97;;;28.62;25.11
54122;BME280;40029;58.708;50.190;2022-07-23T07:01:01;99519.31;;;28.74;25.04
54122;BME280;40029;58.708;50.190;2022-07-23T07:03:32;99508.53;;;28.82;25.47
54122;BME280;40029;58.708;50.190;2022-07-23T07:06:03;99517.97;;;28.93;26.15
54122;BME280;40029;58.708;50.190;2022-07-23T07:08:34;99514.91;;;28.96;24.31
54122;BME280;40029;58.708;50.190;2022-07-23T07:11:05;99518.22;;;29.06;24.26
54122;BME280;40029;58.708;50.190;2022-07-23T07:13:37;99520.25;;;29.19;24.15
54122;BME280;40029;58.708;50.190;2022-07-23T07:16:08;99512.00;;;29.20;23.92
54122;BME280;40029;58.708;50.190;2022-07-23T07:18:39;99528.31;;;29.19;24.85
54122;BME280;40029;58.708;50.190;2022-07-23T07:21:10;99516.00;;;29.24;24.19
54122;BME280;40029;58.708;50.190;2022-07-23T07:23:41;99528.03;;;29.28;24.80
54122;BME280;40029;58.708;50.190;2022-07-23T07:26:12;99499.63;;;29.19;25.48
54122;BME280;40029;58.708;50.190;2022-07-23T07:28:43;99517.09;;;29.45;24.13
54122;BME280;40029;58.708;50.190;2022-07-23T07:31:14;99521.84;;;29.57;21.95
54122;BME280;40029;58.708;50.190;2022-07-23T07:33:45;99513.28;;;29.69;19.96
54122;BME280;40029;58.708;50.190;2022-07-23T07:36:16;99517.84;;;29.68;20.55
54122;BME280;40029;58.708;50.190;2022-07-23T07:38:47;99521.34;;;29.83;19.99
54122;BME280;40029;58.708;50.190;2022-07-23T07:41:18;99513.88;;;30.00;19.86
54122;BME280;40029;58.708;50.190;2022-07-23T07:43:53;99514.50;;;30.02;18.69
54122;BME280;40029;58.708;50.190;2022-07-23T07:46:24;99526.97;;;29.88;18.07
54122;BME280;40029;58.708;50.190;2022-07-23T07:48:58;99527.34;;;29.85;17.30
54122;BME280;40029;58.708;50.190;2022-07-23T07:51:29;99523.03;;;29.70;17.60
54122;BME280;40029;58.708;50.190;2022-07-23T07:54:00;99531.25;;;29.53;17.66
54122;BME280;40029;58.708;50.190;2022-07-23T07:56:31;99524.53;;;29.57;17.66
54122;BME280;40029;58.708;50.190;2022-07-23T07:59:02;99519.69;;;29.82;16.92
54122;BME280;40029;58.708;50.190;2022-07-23T08:01:33;99525.19;;;29.96;16.84
54122;BME280;40029;58.708;50.190;2022-07-23T08:04:04;99521.84;;;30.08;16.70
54122;BME280;40029;58.708;50.190;2022-07-23T08:06:35;99520.63;;;30.32;17.10
54122;BME280;40029;58.708;50.190;2022-07-23T08:09:06;99527.00;;;30.25;16.21
54122;BME280;40029;58.708;50.190;2022-07-23T08:11:37;99532.63;;;30.30;16.01
54122;BME280;40029;58.708;50.190;2022-07-23T08:14:08;99527.84;;;30.10;14.40
54122;BME280;40029;58.708;50.190;2022-07-23T08:16:41;99529.06;;;30.08;14.52
54122;BME280;40029;58.708;50.190;2022-07-23T08:19:12;99521.38;;;30.05;14.59
54122;BME280;40029;58.708;50.190;2022-07-23T08:21:43;99532.50;;;30.17;14.70
54122;BME280;40029;58.708;50.190;2022-07-23T08:24:14;99534.75;;;30.34;15.12
54122;BME280;40029;58.708;50.190;2022-07-23T08:26:45;99529.72;;;30.31;15.48
54122;BME280;40029;58.708;50.190;2022-07-23T08:29:16;99527.38;;;30.43;14.98
54122;BME280;40029;58.708;50.190;2022-07-23T08:31:47;99528.28;;;30.50;14.91
54122;BME280;40029;58.708;50.190;2022-07-23T08:34:18;99528.38;;;30.63;14.84
54122;BME280;40029;58.708;50.190;2022-07-23T08:36:49;99511.47;;;30.70;14.37
54122;BME280;40029;58.708;50.190;2022-07-23T08:39:20;99515.06;;;30.77;15.57
54122;BME280;40029;58.708;50.190;2022-07-23T08:41:51;99523.47;;;30.95;15.92
54122;BME280;40029;58.708;50.190;2022-07-23T08:44:23;99530.66;;;30.88;16.33
54122;BME280;40029;58.708;50.190;2022-07-23T08:46:54;99526.28;;;30.80;15.53
54122;BME280;40029;58.708;50.190;2022-07-23T08:49:25;99508.28;;;30.59;15.57
54122;BME280;40029;58.708;50.190;2022-07-23T08:51:56;99520.94;;;30.66;15.86
54122;BME280;40029;58.708;50.190;2022-07-23T08:54:28;99523.59;;;30.80;16.66
54122;BME280;40029;58.708;50.190;2022-07-23T08:56:58;99523.28;;;30.97;15.99
54122;BME280;40029;58.708;50.190;2022-07-23T08:59:30;99527.22;;;30.94;16.91
54122;BME280;40029;58.708;50.190;2022-07-23T09:02:02;99512.47;;;30.90;16.59
54122;BME280;40029;58.708;50.190;2022-07-23T09:04:34;99511.22;;;30.86;17.81
54122;BME280;40029;58.708;50.190;2022-07-23T09:07:05;99519.03;;;30.81;16.22
54122;BME280;40029;58.708;50.190;2022-07-23T09:09:36;99513.25;;;30.84;16.37
54122;BME280;40029;58.708;50.190;2022-07-23T09:12:09;99512.00;;;30.80;15.77
54122;BME280;40029;58.708;50.190;2022-07-23T09:17:14;99512.38;;;31.05;15.49
54122;BME280;40029;58.708;50.190;2022-07-23T09:19:45;99493.00;;;30.88;15.85
54122;BME280;40029;58.708;50.190;2022-07-23T09:22:22;99508.25;;;31.09;15.37
54122;BME280;40029;58.708;50.190;2022-07-23T09:25:07;99511.88;;;31.23;15.91
54122;BME280;40029;58.708;50.190;2022-07-23T09:27:54;99511.34;;;31.34;15.03
54122;BME280;40029;58.708;50.190;2022-07-23T09:30:27;99509.88;;;31.31;15.85
54122;BME280;40029;58.708;50.190;2022-07-23T09:33:13;99508.16;;;31.24;17.08
54122;BME280;40029;58.708;50.190;2022-07-23T09:38:17;99506.91;;;30.92;15.71
54122;BME280;40029;58.708;50.190;2022-07-23T09:41:08;99503.81;;;31.23;14.55
54122;BME280;40029;58.708;50.190;2022-07-23T09:43:39;99504.63;;;31.23;15.79
54122;BME280;40029;58.708;50.190;2022-07-23T09:46:17;99508.03;;;31.39;15.73
54122;BME280;40029;58.708;50.190;2022-07-23T09:48:49;99498.19;;;31.52;15.41
54122;BME280;40029;58.708;50.190;2022-07-23T09:51:20;99502.13;;;31.56;15.02
54122;BME280;40029;58.708;50.190;2022-07-23T09:54:24;99506.59;;;31.36;15.01
54122;BME280;40029;58.708;50.190;2022-07-23T09:56:58;99512.56;;;31.31;15.16
54122;BME280;40029;58.708;50.190;2022-07-23T09:59:33;99510.72;;;31.32;15.83
54122;BME280;40029;58.708;50.190;2022-07-23T10:02:06;99496.13;;;31.26;16.44
54122;BME280;40029;58.708;50.190;2022-07-23T10:04:47;99503.75;;;31.51;15.40
54122;BME280;40029;58.708;50.190;2022-07-23T10:07:26;99507.63;;;31.35;15.03
54122;BME280;40029;58.708;50.190;2022-07-23T10:10:17;99498.47;;;31.77;14.63
54122;BME280;40029;58.708;50.190;2022-07-23T10:13:06;99493.38;;;31.96;14.17
54122;BME280;40029;58.708;50.190;2022-07-23T10:15:47;99496.94;;;32.09;14.50
54122;BME280;40029;58.708;50.190;2022-07-23T10:18:18;99505.88;;;32.17;15.32
54122;BME280;40029;58.708;50.190;2022-07-23T10:20:50;99500.66;;;32.02;16.26
54122;BME280;40029;58.708;50.190;2022-07-23T10:23:30;99511.22;;;31.49;15.84
54122;BME280;40029;58.708;50.190;2022-07-23T10:32:04;99503.63;;;31.72;16.92
54122;BME280;40029;58.708;50.190;2022-07-23T10:34:54;99506.44;;;31.92;14.90
54122;BME280;40029;58.708;50.190;2022-07-23T10:37:36;99503.97;;;32.10;15.12
54122;BME280;40029;58.708;50.190;2022-07-23T10:40:10;99502.75;;;32.13;14.59
54122;BME280;40029;58.708;50.190;2022-07-23T10:42:42;99504.44;;;32.21;15.52
54122;BME280;40029;58.708;50.190;2022-07-23T10:45:31;99497.44;;;32.53;14.68
54122;BME280;40029;58.708;50.190;2022-07-23T10:48:26;99498.69;;;32.64;15.35
54122;BME280;40029;58.708;50.190;2022-07-23T10:51:12;99493.28;;;32.44;14.16
54122;BME280;40029;58.708;50.190;2022-07-23T10:59:26;99505.25;;;32.28;15.21
54122;BME280;40029;58.708;50.190;2022-07-23T11:02:33;99496.19;;;32.42;14.70
54122;BME280;40029;58.708;50.190;2022-07-23T11:05:13;99487.69;;;32.39;14.29
54122;BME280;40029;58.708;50.190;2022-07-23T11:24:04;99480.41;;;32.39;15.21
54122;BME280;40029;58.708;50.190;2022-07-23T11:32:02;99476.69;;;32.60;14.91
54122;BME280;40029;58.708;50.190;2022-07-23T11:37:10;99467.50;;;32.88;14.76
54122;BME280;40029;58.708;50.190;2022-07-23T11:39:42;99467.88;;;33.31;14.09
54122;BME280;40029;58.708;50.190;2022-07-23T11:42:17;99446.47;;;33.29;14.57
54122;BME280;40029;58.708;50.190;2022-07-23T11:44:50;99472.06;;;33.72;14.26
54122;BME280;40029;58.708;50.190;2022-07-23T11:47:23;99472.31;;;34.08;12.82
54122;BME280;40029;58.708;50.190;2022-07-23T11:49:57;99471.19;;;34.98;12.74
54122;BME280;40029;58.708;50.190;2022-07-23T11:52:29;99468.06;;;35.68;11.00
54122;BME280;40029;58.708;50.190;2022-07-23T11:55:06;99465.00;;;36.24;11.56
54122;BME280;40029;58.708;50.190;2022-07-23T11:57:39;99464.81;;;36.85;10.91
54122;BME280;40029;58.708;50.190;2022-07-23T12:00:16;99460.53;;;37.47;9.38
54122;BME280;40029;58.708;50.190;2022-07-23T12:02:50;99455.75;;;38.29;8.77
54122;BME280;40029;58.708;50.190;2022-07-23T12:05:28;99457.63;;;38.95;6.69
54122;BME280;40029;58.708;50.190;2022-07-23T12:08:02;99457.09;;;39.37;6.96
54122;BME280;40029;58.708;50.190;2022-07-23T12:10:41;99443.03;;;39.45;6.66
54122;BME280;40029;58.708;50.190;2022-07-23T12:13:18;99458.59;;;39.50;5.85
54122;BME280;40029;58.708;50.190;2022-07-23T12:15:52;99450.00;;;39.36;6.33
54122;BME280;40029;58.708;50.190;2022-07-23T12:18:25;99453.84;;;39.62;6.46
54122;BME280;40029;58.708;50.190;2022-07-23T12:20:57;99455.59;;;39.68;7.08
54122;BME280;40029;58.708;50.190;2022-07-23T12:23:33;99459.28;;;39.84;6.86
54122;BME280;40029;58.708;50.190;2022-07-23T12:26:04;99442.72;;;39.91;6.27
54122;BME280;40029;58.708;50.190;2022-07-23T12:28:37;99444.63;;;39.90;5.97
54122;BME280;40029;58.708;50.190;2022-07-23T12:31:10;99426.38;;;39.96;5.45
54122;BME280;40029;58.708;50.190;2022-07-23T12:33:41;99442.47;;;39.97;6.40
54122;BME280;40029;58.708;50.190;2022-07-23T12:36:12;99443.63;;;40.29;5.82
54122;BME280;40029;58.708;50.190;2022-07-23T12:38:48;99440.75;;;40.13;5.36
54122;BME280;40029;58.708;50.190;2022-07-23T12:41:22;99456.06;;;39.92;5.10
54122;BME280;40029;58.708;50.190;2022-07-23T12:43:53;99455.38;;;39.75;5.55
54122;BME280;40029;58.708;50.190;2022-07-23T12:46:24;99421.78;;;39.47;5.33
54122;BME280;40029;58.708;50.190;2022-07-23T12:48:55;99455.97;;;39.55;5.23
54122;BME280;40029;58.708;50.190;2022-07-23T12:51:29;99448.47;;;39.45;4.92
54122;BME280;40029;58.708;50.190;2022-07-23T12:54:07;99451.88;;;39.14;5.25
54122;BME280;40029;58.708;50.190;2022-07-23T12:56:43;99442.22;;;38.84;6.14
54122;BME280;40029;58.708;50.190;2022-07-23T12:59:15;99442.13;;;38.96;6.41
54122;BME280;40029;58.708;50.190;2022-07-23T13:01:55;99404.81;;;38.58;5.65
54122;BME280;40029;58.708;50.190;2022-07-23T13:04:28;99432.84;;;38.24;6.43
54122;BME280;40029;58.708;50.190;2022-07-23T13:07:00;99440.63;;;38.49;6.99
54122;BME280;40029;58.708;50.190;2022-07-23T13:09:33;99434.00;;;38.62;6.64
54122;BME280;40029;58.708;50.190;2022-07-23T13:12:05;99423.06;;;38.40;7.05
54122;BME280;40029;58.708;50.190;2022-07-23T13:14:36;99408.94;;;38.43;6.57
54122;BME280;40029;58.708;50.190;2022-07-23T13:17:07;99430.53;;;38.50;6.78
54122;BME280;40029;58.708;50.190;2022-07-23T13:19:39;99438.16;;;38.70;6.79
54122;BME280;40029;58.708;50.190;2022-07-23T13:22:10;99438.63;;;38.62;6.46
54122;BME280;40029;58.708;50.190;2022-07-23T13:24:41;99441.22;;;38.73;6.99
54122;BME280;40029;58.708;50.190;2022-07-23T13:27:12;99436.06;;;38.55;6.49
54122;BME280;40029;58.708;50.190;2022-07-23T13:29:43;99431.84;;;38.64;6.51
54122;BME280;40029;58.708;50.190;2022-07-23T13:32:14;99425.56;;;38.81;7.56
54122;BME280;40029;58.708;50.190;2022-07-23T13:34:45;99438.34;;;38.80;8.42
54122;BME280;40029;58.708;50.190;2022-07-23T13:37:16;99423.22;;;38.72;7.64
54122;BME280;40029;58.708;50.190;2022-07-23T13:39:46;99396.94;;;38.61;7.45
54122;BME280;40029;58.708;50.190;2022-07-23T13:42:17;99439.97;;;38.98;7.90
54122;BME280;40029;58.708;50.190;2022-07-23T13:44:48;99407.44;;;38.53;7.02
54122;BME280;40029;58.708;50.190;2022-07-23T13:47:19;99407.41;;;38.02;7.54
54122;BME280;40029;58.708;50.190;2022-07-23T13:49:50;99434.31;;;38.15;8.49
54122;BME280;40029;58.708;50.190;2022-07-23T13:52:21;99429.69;;;37.99;8.56
54122;BME280;40029;58.708;50.190;2022-07-23T13:54:52;99431.66;;;38.04;8.51
54122;BME280;40029;58.708;50.190;2022-07-23T13:57:23;99429.84;;;37.92;8.54
54122;BME280;40029;58.708;50.190;2022-07-23T13:59:54;99409.88;;;37.87;8.34
54122;BME280;40029;58.708;50.190;2022-07-23T14:02:25;99424.06;;;37.89;8.69
54122;BME280;40029;58.708;50.190;2022-07-23T14:04:56;99431.47;;;37.93;7.98